Private Wetterstation Nrnberg - Katzwang
Wetterdaten: Mrz 2013
Datum Temp. A. Feuchte A. Luftdruck Regen Wind Richtung Taupunkt Windchill Windben
01.03.2013 1,0 C 82 % 1019 hPa 0,0 l/m 0,0 km/h N-NO -1,8 C 1,0 C 1,0 km/h
02.03.2013 0,6 C 71 % 1019 hPa 0,0 l/m 3,4 km/h O -4,3 C 0,1 C 4,4 km/h
03.03.2013 -0,9 C 78 % 1018 hPa 0,0 l/m 0,0 km/h N-NW -4,3 C -0,9 C 1,0 km/h
04.03.2013 0,5 C 73 % 1016 hPa 0,0 l/m 4,8 km/h O-NO -4,0 C -1,1 C 5,9 km/h
05.03.2013 3,0 C 70 % 1008 hPa 0,0 l/m 1,5 km/h O-NO -2,4 C 3,0 C 2,5 km/h
06.03.2013 5,3 C 68 % 1001 hPa 0,0 l/m 3,6 km/h NO -0,6 C 4,4 C 4,6 km/h
07.03.2013 7,2 C 75 % 999 hPa 0,0 l/m 0,0 km/h O-NO 3,0 C 7,2 C 1,0 km/h
08.03.2013 9,6 C 72 % 998 hPa 0,0 l/m 2,7 km/h NO 4,4 C 9,1 C 3,7 km/h
09.03.2013 8,8 C 75 % 1000 hPa 1,0 l/m 4,6 km/h W-NW 4,3 C 8,0 C 5,6 km/h
10.03.2013 7,8 C 74 % 996 hPa 0,0 l/m 1,7 km/h W-NW 3,2 C 7,8 C 2,7 km/h
11.03.2013 2,7 C 77 % 999 hPa 0,0 l/m 0,0 km/h N-NO -1,0 C 2,7 C 1,0 km/h
12.03.2013 0,2 C 83 % 995 hPa 0,5 l/m 3,8 km/h N-NO -2,4 C -0,4 C 4,8 km/h
13.03.2013 -2,7 C 80 % 1001 hPa 0,0 l/m 2,0 km/h W-NW -5,7 C -3,1 C 3,0 km/h
14.03.2013 -3,3 C 77 % 1007 hPa 2,6 l/m 0,0 km/h W-NW -6,9 C -3,3 C 1,0 km/h
15.03.2013 -3,7 C 72 % 1013 hPa 0,0 l/m 0,0 km/h N-NO -8,0 C -3,7 C 1,0 km/h
16.03.2013 0,4 C 61 % 1011 hPa 0,0 l/m 6,7 km/h O -6,7 C -1,3 C 7,7 km/h
17.03.2013 4,5 C 56 % 1000 hPa 0,0 l/m 7,7 km/h O-NO -3,7 C 1,4 C 10,4 km/h
18.03.2013 1,7 C 84 % 992 hPa 8,3 l/m 0,0 km/h O-NO -0,8 C 1,7 C 1,0 km/h
19.03.2013 4,1 C 81 % 998 hPa 3,1 l/m 2,0 km/h W-NW 1,1 C 3,7 C 3,0 km/h
20.03.2013 4,5 C 78 % 1003 hPa 0,0 l/m 2,5 km/h N 0,7 C 4,5 C 3,5 km/h
21.03.2013 2,6 C 74 % 1014 hPa 1,0 l/m 2,2 km/h W-NW -1,5 C 2,6 C 3,2 km/h
22.03.2013 1,8 C 67 % 1012 hPa 0,0 l/m 7,9 km/h O -3,8 C -0,9 C 8,9 km/h
23.03.2013 0,8 C 64 % 1012 hPa 0,0 l/m 16,4 km/h O -5,4 C -6,5 C 29,9 km/h
24.03.2013 0,0 C 58 % 1009 hPa 0,0 l/m 19,3 km/h O-NO -7,4 C -9,2 C 33,6 km/h
25.03.2013 -2,1 C 76 % 1007 hPa 1,0 l/m 8,5 km/h O -5,8 C -4,2 C 9,5 km/h
26.03.2013 -1,9 C 72 % 1007 hPa 1,0 l/m 10,6 km/h O -6,3 C -6,4 C 13,5 km/h
27.03.2013 -0,3 C 66 % 1007 hPa 0,0 l/m 4,6 km/h O -5,9 C -0,5 C 5,6 km/h
28.03.2013 3,4 C 74 % 1004 hPa 4,1 l/m 5,3 km/h O-NO -1,1 C 2,2 C 6,3 km/h
29.03.2013 2,7 C 72 % 1004 hPa 0,0 l/m 0,0 km/h W-NW -2,1 C 2,7 C 1,0 km/h
30.03.2013 3,3 C 67 % 1001 hPa 0,0 l/m 4,4 km/h NO -2,5 C 2,1 C 5,4 km/h
31.03.2013 1,5 C 67 % 1005 hPa 0,0 l/m 2,8 km/h NO -4,1 C 1,4 C 3,8 km/h
Min-Datum 14.03.13 06.03.13 18.03.13 9 Tage 01.03.13 - 14.03.13 24.03.13 01.03.13
Min-Zeit 06:30 15:40 14:50 - 00:00 - 06:30 07:20 00:00
Minimum -8,8 C 41 % 990 hPa - 0,0 km/h - -11,1 C -14,9 C 1,0 km/h
Max-Datum 08.03.13 03.03.13 02.03.13 18.03.13 20.03.13 - 09.03.13 08.03.13 20.03.13
Max-Zeit 14:00 07:10 08:40 06:10 12:50 - 11:10 14:10 12:50
Maximum 17,9 C 85 % 1022 hPa 8,3 l/m 35,6 km/h
N
- 8,6 C 17,8 C 67,3 km/h
N
Durchschnitt 2,0 C 72 % 1006 hPa #22,8 l/m 4,2 km/h O -2,6 C 0,8 C 6,1 km/h

Durchschnitt Minimum Temp.-1,8 C
Durchschnitt Maximum Temp.7,1 C